IN-0043 weather

STC BSF Indian Army Helipad
Gangpimual, Manipur, India

Public forecast

Using degrees Celsius for public forecast. Weather courtesy of forecast.io.

METAR (pilot weather report)

Closest report is Imphal Airport, 28.7 nm (53.1 km) NNE. Retrieved 2019/08/18 01:30 UTC (9 minutes ago):

VEIM 180130Z 10005KT 4000 BR FEW010 SCT018 BKN100 25/24 Q1010 NOSIG

TAF (pilot weather forecast)

Forecast is more than 12 hours old.

Closest forecast is Imphal Airport, 28.7 nm (53.1 km) NNE. Retrieved 2017/12/28 12:00 UTC (2 years ago):

TAF VEIM 281100Z 2812/2821 06006KT 4000 BR FEW020 BECMG 2815/2817 00000KT 2000 BR